createdAt,value
2023-03-31T00:01:14.901Z,5.77
2023-03-31T00:03:44.944Z,5.80
2023-03-31T00:06:18.907Z,5.81
2023-03-31T00:08:52.279Z,5.82
2023-03-31T00:11:22.434Z,5.83
2023-03-31T00:13:50.927Z,5.86
2023-03-31T00:16:19.864Z,5.87
2023-03-31T00:18:51.145Z,5.89
2023-03-31T00:21:25.409Z,5.90
2023-03-31T00:23:59.922Z,5.93
2023-03-31T00:26:29.614Z,5.96
2023-03-31T00:28:59.692Z,5.96
2023-03-31T00:31:28.808Z,5.97
2023-03-31T00:33:57.415Z,5.97
2023-03-31T00:36:29.111Z,5.98
2023-03-31T00:39:09.009Z,6.00
2023-03-31T00:41:39.498Z,6.02
2023-03-31T00:44:23.236Z,6.03
2023-03-31T00:47:12.341Z,6.04
2023-03-31T00:49:50.799Z,6.04
2023-03-31T00:52:27.141Z,6.02
2023-03-31T00:54:59.952Z,6.00
2023-03-31T00:57:32.579Z,5.98
2023-03-31T01:00:16.285Z,5.96
2023-03-31T01:02:56.258Z,5.93
2023-03-31T01:05:37.360Z,5.91
2023-03-31T01:08:06.451Z,5.86
2023-03-31T01:10:41.955Z,5.82
2023-03-31T01:13:13.745Z,5.77
2023-03-31T01:15:42.951Z,5.72
2023-03-31T01:18:13.298Z,5.68
2023-03-31T01:20:57.632Z,5.63
2023-03-31T01:23:50.585Z,5.58
2023-03-31T01:26:24.711Z,5.52
2023-03-31T01:29:18.063Z,5.47
2023-03-31T01:32:14.603Z,5.43
2023-03-31T01:34:59.160Z,5.41
2023-03-31T01:38:13.012Z,5.39
2023-03-31T01:41:02.480Z,5.39
2023-03-31T01:43:59.328Z,5.38
2023-03-31T01:46:50.671Z,5.39
2023-03-31T01:49:42.267Z,5.41
2023-03-31T01:52:44.154Z,5.43
2023-03-31T01:55:21.943Z,5.47
2023-03-31T01:58:07.755Z,5.51
2023-03-31T02:00:42.240Z,5.54
2023-03-31T02:03:26.982Z,5.58
2023-03-31T02:06:03.902Z,5.62
2023-03-31T02:08:38.421Z,5.66
2023-03-31T02:11:07.098Z,5.70
2023-03-31T02:13:39.365Z,5.74
2023-03-31T02:16:14.424Z,5.77
2023-03-31T02:18:44.523Z,5.80
2023-03-31T02:21:14.896Z,5.82
2023-03-31T02:23:46.088Z,5.85
2023-03-31T02:26:38.132Z,5.89
2023-03-31T02:29:07.028Z,5.92
2023-03-31T02:31:41.299Z,5.94
2023-03-31T02:34:10.021Z,5.96
2023-03-31T02:36:38.911Z,5.97
2023-03-31T02:39:27.260Z,5.99
2023-03-31T02:41:55.844Z,6.01
2023-03-31T02:44:25.146Z,6.03
2023-03-31T02:46:54.658Z,6.05
2023-03-31T02:49:22.909Z,6.07
2023-03-31T02:52:13.338Z,6.08
2023-03-31T02:55:16.419Z,6.12
2023-03-31T02:57:59.750Z,6.15
2023-03-31T03:00:46.561Z,6.18
2023-03-31T03:03:21.029Z,6.22
2023-03-31T03:06:08.686Z,6.25
2023-03-31T03:09:13.857Z,6.28
2023-03-31T03:12:00.462Z,6.31
2023-03-31T03:14:40.086Z,6.33
2023-03-31T03:17:14.691Z,6.36
2023-03-31T03:19:43.417Z,6.38
2023-03-31T03:22:11.696Z,6.41
2023-03-31T03:24:40.094Z,6.43
2023-03-31T03:27:08.455Z,6.45
2023-03-31T03:29:36.629Z,6.47
2023-03-31T03:32:04.908Z,6.49
2023-03-31T03:34:33.320Z,6.52
2023-03-31T03:37:01.767Z,6.54
2023-03-31T03:39:30.047Z,6.57
2023-03-31T03:41:58.738Z,6.60
2023-03-31T03:44:27.382Z,6.62
2023-03-31T03:46:55.700Z,6.64
2023-03-31T03:49:24.070Z,6.67
2023-03-31T03:51:52.962Z,6.69
2023-03-31T03:54:21.457Z,6.71
2023-03-31T03:56:49.790Z,6.73
2023-03-31T03:59:18.445Z,6.76
2023-03-31T04:01:46.930Z,6.76
2023-03-31T04:04:15.667Z,6.77
2023-03-31T04:06:43.943Z,6.80
2023-03-31T04:09:12.045Z,6.83
2023-03-31T04:11:40.599Z,6.85
2023-03-31T04:14:08.980Z,6.88
2023-03-31T04:16:38.666Z,6.91
2023-03-31T04:19:07.178Z,6.94
2023-03-31T04:21:35.648Z,6.96
2023-03-31T04:24:07.101Z,6.99
2023-03-31T04:26:45.010Z,7.01
2023-03-31T04:29:16.736Z,7.03
2023-03-31T04:31:45.259Z,7.05
2023-03-31T04:34:15.584Z,7.06
2023-03-31T04:36:47.964Z,7.08
2023-03-31T04:39:24.616Z,7.10
2023-03-31T04:41:55.762Z,7.15
2023-03-31T04:44:24.242Z,7.18
2023-03-31T04:46:52.629Z,7.23
2023-03-31T04:49:21.110Z,7.28
2023-03-31T04:51:49.793Z,7.31
2023-03-31T04:54:21.134Z,7.35
2023-03-31T04:56:49.444Z,7.38
2023-03-31T04:59:17.590Z,7.40
2023-03-31T05:01:46.116Z,7.42
2023-03-31T05:04:14.756Z,7.43
2023-03-31T05:06:43.064Z,7.44
2023-03-31T05:09:11.415Z,7.45
2023-03-31T05:11:39.801Z,7.47
2023-03-31T05:14:07.976Z,7.49
2023-03-31T05:16:36.577Z,7.51
2023-03-31T05:19:04.945Z,7.55
2023-03-31T05:21:33.319Z,7.60
2023-03-31T05:24:01.504Z,7.67
2023-03-31T05:26:29.659Z,7.74
2023-03-31T05:28:57.940Z,7.79
2023-03-31T05:31:27.676Z,7.84
2023-03-31T05:33:55.933Z,7.90
2023-03-31T05:36:24.346Z,7.94
2023-03-31T05:38:53.096Z,7.97
2023-03-31T05:41:21.678Z,7.99
2023-03-31T05:43:50.060Z,7.98
2023-03-31T05:46:18.760Z,7.95
2023-03-31T05:48:47.080Z,7.90
2023-03-31T05:51:15.299Z,7.80
2023-03-31T05:53:44.209Z,7.67
2023-03-31T05:56:12.770Z,7.53
2023-03-31T05:58:41.458Z,7.40
2023-03-31T06:01:12.315Z,7.28
2023-03-31T06:03:42.538Z,7.17
2023-03-31T06:06:13.372Z,7.04
2023-03-31T06:08:45.788Z,6.92
2023-03-31T06:11:17.300Z,6.78
2023-03-31T06:13:46.386Z,6.63
2023-03-31T06:16:17.231Z,6.50
2023-03-31T06:18:46.206Z,6.38
2023-03-31T06:21:17.157Z,6.29
2023-03-31T06:23:46.349Z,6.22
2023-03-31T06:26:17.254Z,6.20
2023-03-31T06:28:47.041Z,6.24
2023-03-31T06:31:18.578Z,6.33
2023-03-31T06:33:48.150Z,6.43
2023-03-31T06:36:18.320Z,6.53
2023-03-31T06:38:46.778Z,6.62
2023-03-31T06:41:17.086Z,6.69
2023-03-31T06:43:45.378Z,6.73
2023-03-31T06:46:14.373Z,6.75
2023-03-31T06:48:42.953Z,6.77
2023-03-31T06:51:12.129Z,6.77
2023-03-31T06:53:40.983Z,6.78
2023-03-31T06:56:09.660Z,6.82
2023-03-31T06:58:38.187Z,6.86
2023-03-31T07:01:07.393Z,6.91
2023-03-31T07:03:36.522Z,6.95
2023-03-31T07:06:05.270Z,6.99
2023-03-31T07:08:33.445Z,7.01
2023-03-31T07:11:02.378Z,7.01
2023-03-31T07:13:31.146Z,6.98
2023-03-31T07:15:59.433Z,6.97
2023-03-31T07:18:34.899Z,6.87
2023-03-31T07:21:07.284Z,6.73
2023-03-31T07:23:38.508Z,6.63
2023-03-31T07:26:06.955Z,6.54
2023-03-31T07:28:35.835Z,6.46
2023-03-31T07:31:11.346Z,6.44
2023-03-31T07:33:40.076Z,6.41
2023-03-31T07:36:12.787Z,6.40
2023-03-31T07:38:44.466Z,6.40
2023-03-31T07:41:15.478Z,6.43
2023-03-31T07:43:44.888Z,6.46
2023-03-31T07:46:24.253Z,6.47
2023-03-31T07:48:54.619Z,6.48
2023-03-31T07:51:25.989Z,6.45
2023-03-31T07:53:54.272Z,6.42
2023-03-31T07:56:25.025Z,6.37
2023-03-31T07:58:56.815Z,6.35
2023-03-31T08:01:26.908Z,6.35
2023-03-31T08:03:56.233Z,6.32
2023-03-31T08:06:26.680Z,6.33
2023-03-31T08:08:55.268Z,6.38
2023-03-31T08:11:24.676Z,6.41
2023-03-31T08:13:53.462Z,6.46
2023-03-31T08:16:21.688Z,6.53
2023-03-31T08:18:50.817Z,6.59
2023-03-31T08:21:19.328Z,6.66
2023-03-31T08:23:48.515Z,6.74
2023-03-31T08:26:22.025Z,6.85
2023-03-31T08:28:50.863Z,6.99
2023-03-31T08:31:21.570Z,7.15
2023-03-31T08:33:50.637Z,7.29
2023-03-31T08:36:18.923Z,7.43
2023-03-31T08:38:48.189Z,7.62
2023-03-31T08:41:16.380Z,7.82
2023-03-31T08:43:47.775Z,8.05
2023-03-31T08:46:18.944Z,8.35
2023-03-31T08:48:55.191Z,8.56
2023-03-31T08:51:39.704Z,8.75
2023-03-31T08:54:34.186Z,8.98
2023-03-31T08:57:06.433Z,9.28
2023-03-31T08:59:37.762Z,9.47
2023-03-31T09:02:48.989Z,9.73
2023-03-31T09:05:58.972Z,9.98
2023-03-31T09:08:39.455Z,10.30
2023-03-31T09:11:14.896Z,10.61
2023-03-31T09:14:05.249Z,10.81
2023-03-31T09:16:38.888Z,10.99
2023-03-31T09:19:18.911Z,11.24
2023-03-31T09:21:51.997Z,11.64
2023-03-31T09:24:25.963Z,12.10
2023-03-31T09:27:00.855Z,12.56
2023-03-31T09:29:47.550Z,12.99
2023-03-31T09:32:22.872Z,13.41
2023-03-31T09:34:57.431Z,13.75
2023-03-31T09:37:30.505Z,14.07
2023-03-31T09:40:02.277Z,14.40
2023-03-31T09:42:30.948Z,14.61
2023-03-31T09:44:59.290Z,14.72
2023-03-31T09:47:43.846Z,14.75
2023-03-31T09:50:12.880Z,14.75
2023-03-31T09:52:43.354Z,14.87
2023-03-31T09:55:39.213Z,15.19
2023-03-31T09:58:13.892Z,15.44
2023-03-31T10:00:44.383Z,15.70
2023-03-31T10:03:16.280Z,15.77
2023-03-31T10:05:53.206Z,15.80
2023-03-31T10:08:29.397Z,15.90
2023-03-31T10:11:09.092Z,15.87
2023-03-31T10:13:58.994Z,15.68
2023-03-31T10:16:30.043Z,15.58
2023-03-31T10:19:21.638Z,15.62
2023-03-31T10:22:06.910Z,15.52
2023-03-31T10:24:43.897Z,15.49
2023-03-31T10:27:21.429Z,15.46
2023-03-31T10:29:57.141Z,15.34
2023-03-31T10:32:45.874Z,15.28
2023-03-31T10:35:27.424Z,15.26
2023-03-31T10:38:07.449Z,15.22
2023-03-31T10:40:37.017Z,15.18
2023-03-31T10:43:21.455Z,15.08
2023-03-31T10:45:52.463Z,15.03
2023-03-31T10:48:29.053Z,14.94
2023-03-31T10:51:19.150Z,14.88
2023-03-31T10:53:52.738Z,14.87
2023-03-31T10:56:32.289Z,14.88
2023-03-31T10:59:33.143Z,14.84
2023-03-31T11:02:20.051Z,14.84
2023-03-31T11:05:01.032Z,14.93
2023-03-31T11:07:48.898Z,15.05
2023-03-31T11:10:30.022Z,15.19
2023-03-31T11:13:20.114Z,15.31
2023-03-31T11:15:59.316Z,15.41
2023-03-31T11:18:43.093Z,15.49
2023-03-31T11:21:28.673Z,15.60
2023-03-31T11:24:24.860Z,15.63
2023-03-31T11:27:09.834Z,15.72
2023-03-31T11:29:44.809Z,15.73
2023-03-31T11:32:43.661Z,15.77
2023-03-31T11:35:47.819Z,15.85
2023-03-31T11:38:30.971Z,15.99
2023-03-31T11:41:16.774Z,16.15
2023-03-31T11:43:49.923Z,16.38
2023-03-31T11:46:23.931Z,16.66
2023-03-31T11:49:00.294Z,16.99
2023-03-31T11:51:42.727Z,17.31
2023-03-31T11:54:20.482Z,17.46
2023-03-31T11:56:49.425Z,17.71
2023-03-31T11:59:21.681Z,18.03
2023-03-31T12:02:16.050Z,18.38
2023-03-31T12:04:49.819Z,18.79
2023-03-31T12:07:32.261Z,19.18
2023-03-31T12:10:19.577Z,19.55
2023-03-31T12:13:15.102Z,19.76
2023-03-31T12:15:48.479Z,19.96
2023-03-31T12:18:22.849Z,20.18
2023-03-31T12:20:55.814Z,20.39
2023-03-31T12:23:28.789Z,20.56
2023-03-31T12:26:16.933Z,20.70
2023-03-31T12:28:48.113Z,20.73
2023-03-31T12:31:22.332Z,20.68
2023-03-31T12:34:14.329Z,20.65
2023-03-31T12:37:15.083Z,20.83
2023-03-31T12:39:43.143Z,20.91
2023-03-31T12:42:40.959Z,20.94
2023-03-31T12:45:32.412Z,20.96
2023-03-31T12:48:19.342Z,20.96
2023-03-31T12:51:09.973Z,21.07
2023-03-31T12:53:44.371Z,21.17
2023-03-31T12:56:12.749Z,21.11
2023-03-31T12:58:43.554Z,21.07
2023-03-31T13:01:23.626Z,21.00
2023-03-31T13:03:54.277Z,20.99
2023-03-31T13:06:25.719Z,20.85
2023-03-31T13:08:58.726Z,20.84
2023-03-31T13:11:36.721Z,20.89
2023-03-31T13:14:17.481Z,20.88
2023-03-31T13:16:47.246Z,20.78
2023-03-31T13:19:31.347Z,20.74
2023-03-31T13:22:01.974Z,20.81
2023-03-31T13:24:32.167Z,20.99
2023-03-31T13:27:31.402Z,21.11
2023-03-31T13:29:59.488Z,21.05
2023-03-31T13:32:28.317Z,21.02
2023-03-31T13:35:05.835Z,21.10
2023-03-31T13:37:46.626Z,21.33
2023-03-31T13:40:27.300Z,21.54
2023-03-31T13:43:27.363Z,21.72
2023-03-31T13:46:08.859Z,21.69
2023-03-31T13:48:55.910Z,21.48
2023-03-31T13:51:43.128Z,21.22
2023-03-31T13:54:29.634Z,20.86
2023-03-31T13:57:03.787Z,20.67
2023-03-31T13:59:50.765Z,20.68
2023-03-31T14:02:45.740Z,20.92
2023-03-31T14:05:23.260Z,20.95
2023-03-31T14:08:15.088Z,20.84
2023-03-31T14:10:44.399Z,20.64
2023-03-31T14:13:18.767Z,20.53
2023-03-31T14:15:58.247Z,20.40
2023-03-31T14:18:51.550Z,20.19
2023-03-31T14:21:34.124Z,20.08
2023-03-31T14:24:35.791Z,20.00
2023-03-31T14:27:41.642Z,19.94
2023-03-31T14:30:42.616Z,19.99
2023-03-31T14:33:19.609Z,20.04
2023-03-31T14:36:08.331Z,20.08
2023-03-31T14:38:37.274Z,19.98
2023-03-31T14:41:05.922Z,19.87
2023-03-31T14:43:47.743Z,19.74
2023-03-31T14:46:20.602Z,19.57
2023-03-31T14:48:51.249Z,19.44
2023-03-31T14:51:31.119Z,19.30
2023-03-31T14:54:00.903Z,19.18
2023-03-31T14:56:38.052Z,19.08
2023-03-31T14:59:08.168Z,19.02
2023-03-31T15:01:38.572Z,18.97
2023-03-31T15:04:20.390Z,18.93
2023-03-31T15:06:53.685Z,18.94
2023-03-31T15:09:27.408Z,18.97
2023-03-31T15:12:01.813Z,18.98
2023-03-31T15:14:36.932Z,19.00
2023-03-31T15:17:05.345Z,19.00
2023-03-31T15:19:35.795Z,19.01
2023-03-31T15:22:19.155Z,18.96
2023-03-31T15:24:47.476Z,18.89
2023-03-31T15:27:23.334Z,18.83
2023-03-31T15:29:57.533Z,18.72
2023-03-31T15:32:31.593Z,18.60
2023-03-31T15:37:54.797Z,18.35
2023-03-31T15:40:52.096Z,18.24
2023-03-31T15:44:13.051Z,18.12
2023-03-31T15:46:42.380Z,18.03
2023-03-31T15:49:26.402Z,17.98
2023-03-31T15:51:57.691Z,17.94
2023-03-31T15:54:34.891Z,17.91
2023-03-31T15:57:05.868Z,17.90
2023-03-31T16:02:25.645Z,17.85
2023-03-31T16:04:59.762Z,17.81
2023-03-31T16:07:36.662Z,17.76
2023-03-31T16:10:18.548Z,17.71
2023-03-31T16:12:56.302Z,17.65
2023-03-31T16:15:41.873Z,17.58
2023-03-31T16:18:18.081Z,17.49
2023-03-31T16:20:54.736Z,17.39
2023-03-31T16:23:27.993Z,17.28
2023-03-31T16:25:56.520Z,17.18
2023-03-31T16:28:31.650Z,17.05
2023-03-31T16:31:02.196Z,16.92
2023-03-31T16:33:31.991Z,16.78
2023-03-31T16:36:02.952Z,16.63
2023-03-31T16:38:31.407Z,16.49
2023-03-31T16:41:00.682Z,16.35
2023-03-31T16:43:31.405Z,16.20
2023-03-31T16:46:03.493Z,16.04
2023-03-31T16:48:35.149Z,15.87
2023-03-31T16:51:04.129Z,15.70
2023-03-31T16:53:34.637Z,15.53
2023-03-31T16:56:05.191Z,15.35
2023-03-31T16:58:34.408Z,15.16
2023-03-31T17:01:03.669Z,14.97
2023-03-31T17:03:32.585Z,14.79
2023-03-31T17:06:07.068Z,14.64
2023-03-31T17:08:35.294Z,14.49
2023-03-31T17:11:07.292Z,14.37
2023-03-31T17:13:35.536Z,14.25
2023-03-31T17:18:54.733Z,14.08
2023-03-31T17:21:23.923Z,14.01
2023-03-31T17:23:52.447Z,13.95
2023-03-31T17:26:20.993Z,13.88
2023-03-31T17:28:49.366Z,13.80
2023-03-31T17:31:21.220Z,13.71
2023-03-31T17:33:49.612Z,13.64
2023-03-31T17:36:18.197Z,13.56
2023-03-31T17:38:46.666Z,13.46
2023-03-31T17:41:17.813Z,13.36
2023-03-31T17:43:47.420Z,13.26
2023-03-31T17:46:17.522Z,13.16
2023-03-31T17:48:45.915Z,13.07
2023-03-31T17:51:16.814Z,12.97
2023-03-31T17:53:46.572Z,12.86
2023-03-31T17:56:16.810Z,12.73
2023-03-31T17:58:46.942Z,12.59
2023-03-31T18:01:15.320Z,12.46
2023-03-31T18:03:45.408Z,12.31
2023-03-31T18:06:14.911Z,12.17
2023-03-31T18:08:43.299Z,12.04
2023-03-31T18:11:12.084Z,11.92
2023-03-31T18:13:40.729Z,11.81
2023-03-31T18:16:11.169Z,11.69
2023-03-31T18:18:39.877Z,11.61
2023-03-31T18:21:10.923Z,11.52
2023-03-31T18:23:40.323Z,11.43
2023-03-31T18:26:10.940Z,11.36
2023-03-31T18:28:43.227Z,11.28
2023-03-31T18:31:12.495Z,11.22
2023-03-31T18:33:41.751Z,11.18
2023-03-31T18:36:17.090Z,11.13
2023-03-31T18:38:49.482Z,11.10
2023-03-31T18:41:19.469Z,11.08
2023-03-31T18:43:48.156Z,11.05
2023-03-31T18:46:16.791Z,11.03
2023-03-31T18:48:45.634Z,11.01
2023-03-31T18:51:15.125Z,11.00
2023-03-31T18:53:44.650Z,10.99
2023-03-31T18:56:13.424Z,10.97
2023-03-31T18:58:42.104Z,10.96
2023-03-31T19:01:10.329Z,10.95
2023-03-31T19:03:39.222Z,10.93
2023-03-31T19:06:10.455Z,10.91
2023-03-31T19:08:42.800Z,10.88
2023-03-31T19:11:16.313Z,10.83
2023-03-31T19:13:47.727Z,10.78
2023-03-31T19:16:18.093Z,10.71
2023-03-31T19:18:46.871Z,10.65
2023-03-31T19:21:15.239Z,10.58
2023-03-31T19:23:43.619Z,10.50
2023-03-31T19:26:18.317Z,10.43
2023-03-31T19:28:48.224Z,10.34
2023-03-31T19:31:16.335Z,10.28
2023-03-31T19:33:44.663Z,10.22
2023-03-31T19:36:14.238Z,10.17
2023-03-31T19:38:43.535Z,10.12
2023-03-31T19:41:12.105Z,10.06
2023-03-31T19:43:42.736Z,10.01
2023-03-31T19:46:11.153Z,9.96
2023-03-31T19:48:40.527Z,9.91
2023-03-31T19:51:10.021Z,9.86
2023-03-31T19:53:39.320Z,9.81
2023-03-31T19:56:13.661Z,9.76
2023-03-31T19:58:42.665Z,9.71
2023-03-31T20:01:20.627Z,9.67
2023-03-31T20:03:53.677Z,9.64
2023-03-31T20:06:30.515Z,9.60
2023-03-31T20:09:00.974Z,9.56
2023-03-31T20:11:31.209Z,9.53
2023-03-31T20:14:01.432Z,9.49
2023-03-31T20:16:31.376Z,9.46
2023-03-31T20:19:05.260Z,9.42
2023-03-31T20:21:36.901Z,9.36
2023-03-31T20:24:06.142Z,9.29
2023-03-31T20:26:35.161Z,9.22
2023-03-31T20:29:04.324Z,9.14
2023-03-31T20:31:38.520Z,9.04
2023-03-31T20:34:12.745Z,8.94
2023-03-31T20:36:43.287Z,8.85
2023-03-31T20:39:14.149Z,8.76
2023-03-31T20:41:42.729Z,8.69
2023-03-31T20:44:15.204Z,8.62
2023-03-31T20:46:45.386Z,8.55
2023-03-31T20:49:14.242Z,8.47
2023-03-31T20:51:42.910Z,8.39
2023-03-31T20:54:12.104Z,8.33
2023-03-31T20:56:41.817Z,8.28
2023-03-31T20:59:15.115Z,8.26
2023-03-31T21:01:47.210Z,8.25
2023-03-31T21:04:17.232Z,8.25
2023-03-31T21:06:47.315Z,8.24
2023-03-31T21:09:16.613Z,8.23
2023-03-31T21:11:45.023Z,8.23
2023-03-31T21:14:15.780Z,8.22
2023-03-31T21:16:45.038Z,8.22
2023-03-31T21:19:13.504Z,8.24
2023-03-31T21:21:43.318Z,8.24
2023-03-31T21:24:12.718Z,8.26
2023-03-31T21:26:41.320Z,8.29
2023-03-31T21:29:09.583Z,8.29
2023-03-31T21:31:38.051Z,8.30
2023-03-31T21:34:06.470Z,8.26
2023-03-31T21:36:35.165Z,8.22
2023-03-31T21:39:03.519Z,8.20
2023-03-31T21:41:32.199Z,8.16
2023-03-31T21:44:02.327Z,8.08
2023-03-31T21:46:33.819Z,8.01
2023-03-31T21:49:03.083Z,7.95
2023-03-31T21:51:31.556Z,7.86
2023-03-31T21:54:00.044Z,7.78
2023-03-31T21:56:32.081Z,7.70
2023-03-31T21:59:02.524Z,7.62
2023-03-31T22:01:32.246Z,7.57
2023-03-31T22:04:00.950Z,7.52
2023-03-31T22:06:29.528Z,7.49
2023-03-31T22:08:57.680Z,7.45
2023-03-31T22:11:26.879Z,7.43
2023-03-31T22:13:55.067Z,7.41
2023-03-31T22:16:24.191Z,7.40
2023-03-31T22:18:55.297Z,7.40
2023-03-31T22:21:26.393Z,7.40
2023-03-31T22:23:59.738Z,7.39
2023-03-31T22:26:30.159Z,7.39
2023-03-31T22:28:59.368Z,7.40
2023-03-31T22:31:28.586Z,7.38
2023-03-31T22:33:57.132Z,7.37
2023-03-31T22:36:25.452Z,7.36
2023-03-31T22:38:53.588Z,7.36
2023-03-31T22:41:22.067Z,7.36
2023-03-31T22:43:51.878Z,7.36
2023-03-31T22:46:21.046Z,7.36
2023-03-31T22:48:50.608Z,7.37
2023-03-31T22:51:19.064Z,7.37
2023-03-31T22:53:51.955Z,7.36
2023-03-31T22:56:21.450Z,7.34
2023-03-31T22:58:53.318Z,7.30
2023-03-31T23:01:22.088Z,7.29
2023-03-31T23:03:50.945Z,7.25
2023-03-31T23:06:19.381Z,7.19
2023-03-31T23:08:49.130Z,7.13
2023-03-31T23:11:18.994Z,7.07
2023-03-31T23:13:47.717Z,7.02
2023-03-31T23:16:20.120Z,6.97
2023-03-31T23:18:48.951Z,6.92
2023-03-31T23:21:21.801Z,6.87
2023-03-31T23:23:53.767Z,6.81
2023-03-31T23:26:24.357Z,6.77
2023-03-31T23:28:54.463Z,6.73
2023-03-31T23:31:28.536Z,6.71
2023-03-31T23:33:58.379Z,6.68
2023-03-31T23:36:27.365Z,6.67
2023-03-31T23:38:56.773Z,6.67
2023-03-31T23:41:26.598Z,6.67
2023-03-31T23:43:56.494Z,6.65
2023-03-31T23:46:26.212Z,6.62
2023-03-31T23:48:54.686Z,6.62
2023-03-31T23:51:23.640Z,6.61
2023-03-31T23:53:52.496Z,6.62
2023-03-31T23:56:21.151Z,6.64
2023-03-31T23:58:49.330Z,6.66
